sensor_id;sensor_type;location;lat;lon;timestamp;P1;durP1;ratioP1;P2;durP2;ratioP2
1136;SDS011;557;48.466;7.950;2023-09-19T00:00:52;2.30;;;1.40;;
1136;SDS011;557;48.466;7.950;2023-09-19T00:03:42;2.30;;;1.30;;
1136;SDS011;557;48.466;7.950;2023-09-19T00:06:28;1.70;;;1.10;;
1136;SDS011;557;48.466;7.950;2023-09-19T00:09:14;2.63;;;1.33;;
1136;SDS011;557;48.466;7.950;2023-09-19T00:12:00;1.90;;;1.00;;
1136;SDS011;557;48.466;7.950;2023-09-19T00:14:46;2.20;;;1.50;;
1136;SDS011;557;48.466;7.950;2023-09-19T00:17:31;1.70;;;1.10;;
1136;SDS011;557;48.466;7.950;2023-09-19T00:20:20;1.73;;;1.00;;
1136;SDS011;557;48.466;7.950;2023-09-19T00:23:07;2.43;;;1.00;;
1136;SDS011;557;48.466;7.950;2023-09-19T00:25:53;3.83;;;1.53;;
1136;SDS011;557;48.466;7.950;2023-09-19T00:28:41;1.80;;;1.00;;
1136;SDS011;557;48.466;7.950;2023-09-19T00:31:27;3.73;;;1.57;;
1136;SDS011;557;48.466;7.950;2023-09-19T00:34:14;2.57;;;1.37;;
1136;SDS011;557;48.466;7.950;2023-09-19T00:37:01;1.70;;;1.10;;
1136;SDS011;557;48.466;7.950;2023-09-19T00:39:47;3.33;;;1.33;;
1136;SDS011;557;48.466;7.950;2023-09-19T00:42:33;2.53;;;1.30;;
1136;SDS011;557;48.466;7.950;2023-09-19T00:45:21;1.50;;;0.90;;
1136;SDS011;557;48.466;7.950;2023-09-19T00:48:07;2.20;;;1.07;;
1136;SDS011;557;48.466;7.950;2023-09-19T00:50:54;2.33;;;1.10;;
1136;SDS011;557;48.466;7.950;2023-09-19T00:53:45;2.83;;;1.30;;
1136;SDS011;557;48.466;7.950;2023-09-19T00:56:31;1.57;;;1.03;;
1136;SDS011;557;48.466;7.950;2023-09-19T00:59:17;2.90;;;1.30;;
1136;SDS011;557;48.466;7.950;2023-09-19T01:02:03;2.80;;;1.10;;
1136;SDS011;557;48.466;7.950;2023-09-19T01:04:49;2.40;;;1.30;;
1136;SDS011;557;48.466;7.950;2023-09-19T01:07:34;2.92;;;1.30;;
1136;SDS011;557;48.466;7.950;2023-09-19T01:10:22;2.70;;;1.20;;
1136;SDS011;557;48.466;7.950;2023-09-19T01:13:11;3.30;;;1.30;;
1136;SDS011;557;48.466;7.950;2023-09-19T01:16:03;8.70;;;1.83;;
1136;SDS011;557;48.466;7.950;2023-09-19T01:18:59;3.65;;;1.33;;
1136;SDS011;557;48.466;7.950;2023-09-19T01:21:54;1.95;;;1.10;;
1136;SDS011;557;48.466;7.950;2023-09-19T01:24:55;3.13;;;1.57;;
1136;SDS011;557;48.466;7.950;2023-09-19T01:28:19;1.70;;;1.13;;
1136;SDS011;557;48.466;7.950;2023-09-19T01:31:13;2.53;;;1.30;;
1136;SDS011;557;48.466;7.950;2023-09-19T01:34:00;2.23;;;1.03;;
1136;SDS011;557;48.466;7.950;2023-09-19T01:36:48;1.98;;;1.20;;
1136;SDS011;557;48.466;7.950;2023-09-19T01:39:33;3.53;;;1.10;;
1136;SDS011;557;48.466;7.950;2023-09-19T01:42:21;2.13;;;1.20;;
1136;SDS011;557;48.466;7.950;2023-09-19T01:45:19;2.00;;;1.17;;
1136;SDS011;557;48.466;7.950;2023-09-19T01:48:20;3.47;;;1.17;;
1136;SDS011;557;48.466;7.950;2023-09-19T01:51:14;2.70;;;1.50;;
1136;SDS011;557;48.466;7.950;2023-09-19T01:54:10;2.30;;;1.40;;
1136;SDS011;557;48.466;7.950;2023-09-19T01:56:59;2.53;;;1.27;;
1136;SDS011;557;48.466;7.950;2023-09-19T01:59:50;2.60;;;1.33;;
1136;SDS011;557;48.466;7.950;2023-09-19T02:02:42;2.72;;;1.50;;
1136;SDS011;557;48.466;7.950;2023-09-19T02:05:32;2.47;;;1.53;;
1136;SDS011;557;48.466;7.950;2023-09-19T02:08:18;3.40;;;1.30;;
1136;SDS011;557;48.466;7.950;2023-09-19T02:11:04;2.40;;;1.60;;
1136;SDS011;557;48.466;7.950;2023-09-19T02:13:50;3.37;;;1.40;;
1136;SDS011;557;48.466;7.950;2023-09-19T02:16:38;4.00;;;1.33;;
1136;SDS011;557;48.466;7.950;2023-09-19T02:19:24;2.20;;;1.20;;
1136;SDS011;557;48.466;7.950;2023-09-19T02:22:10;3.33;;;1.60;;
1136;SDS011;557;48.466;7.950;2023-09-19T02:24:56;3.33;;;1.57;;
1136;SDS011;557;48.466;7.950;2023-09-19T02:27:44;2.57;;;1.50;;
1136;SDS011;557;48.466;7.950;2023-09-19T02:30:29;2.20;;;1.60;;
1136;SDS011;557;48.466;7.950;2023-09-19T02:33:15;3.93;;;1.33;;
1136;SDS011;557;48.466;7.950;2023-09-19T02:36:00;1.90;;;1.33;;
1136;SDS011;557;48.466;7.950;2023-09-19T02:38:49;5.40;;;1.87;;
1136;SDS011;557;48.466;7.950;2023-09-19T02:41:34;2.50;;;1.60;;
1136;SDS011;557;48.466;7.950;2023-09-19T02:44:20;3.17;;;1.40;;
1136;SDS011;557;48.466;7.950;2023-09-19T02:47:07;4.50;;;1.70;;
1136;SDS011;557;48.466;7.950;2023-09-19T02:49:53;4.47;;;1.80;;
1136;SDS011;557;48.466;7.950;2023-09-19T02:52:41;2.50;;;1.60;;
1136;SDS011;557;48.466;7.950;2023-09-19T02:55:29;3.65;;;1.60;;
1136;SDS011;557;48.466;7.950;2023-09-19T02:58:15;3.00;;;1.87;;
1136;SDS011;557;48.466;7.950;2023-09-19T03:01:07;3.80;;;1.53;;
1136;SDS011;557;48.466;7.950;2023-09-19T03:03:55;5.50;;;1.53;;
1136;SDS011;557;48.466;7.950;2023-09-19T03:06:40;4.20;;;1.20;;
1136;SDS011;557;48.466;7.950;2023-09-19T03:09:26;3.27;;;1.23;;
1136;SDS011;557;48.466;7.950;2023-09-19T03:12:13;4.00;;;1.60;;
1136;SDS011;557;48.466;7.950;2023-09-19T03:14:59;2.03;;;1.60;;
1136;SDS011;557;48.466;7.950;2023-09-19T03:17:45;6.37;;;1.80;;
1136;SDS011;557;48.466;7.950;2023-09-19T03:20:32;2.13;;;1.40;;
1136;SDS011;557;48.466;7.950;2023-09-19T03:23:18;5.33;;;1.37;;
1136;SDS011;557;48.466;7.950;2023-09-19T03:26:04;2.20;;;1.17;;
1136;SDS011;557;48.466;7.950;2023-09-19T03:28:51;2.77;;;1.60;;
1136;SDS011;557;48.466;7.950;2023-09-19T03:31:37;3.17;;;1.40;;
1136;SDS011;557;48.466;7.950;2023-09-19T03:34:23;2.40;;;1.50;;
1136;SDS011;557;48.466;7.950;2023-09-19T03:37:08;3.60;;;1.42;;
1136;SDS011;557;48.466;7.950;2023-09-19T03:39:54;5.20;;;1.60;;
1136;SDS011;557;48.466;7.950;2023-09-19T03:42:40;3.00;;;1.37;;
1136;SDS011;557;48.466;7.950;2023-09-19T03:45:28;3.67;;;1.67;;
1136;SDS011;557;48.466;7.950;2023-09-19T03:48:13;3.63;;;1.40;;
1136;SDS011;557;48.466;7.950;2023-09-19T03:50:59;3.55;;;1.30;;
1136;SDS011;557;48.466;7.950;2023-09-19T03:53:46;3.20;;;1.33;;
1136;SDS011;557;48.466;7.950;2023-09-19T03:56:33;2.60;;;1.27;;
1136;SDS011;557;48.466;7.950;2023-09-19T03:59:18;2.80;;;1.40;;
1136;SDS011;557;48.466;7.950;2023-09-19T04:02:05;3.13;;;1.20;;
1136;SDS011;557;48.466;7.950;2023-09-19T04:04:55;2.70;;;1.40;;
1136;SDS011;557;48.466;7.950;2023-09-19T04:07:41;2.00;;;1.20;;
1136;SDS011;557;48.466;7.950;2023-09-19T04:10:26;2.70;;;1.33;;
1136;SDS011;557;48.466;7.950;2023-09-19T04:13:12;2.20;;;1.30;;
1136;SDS011;557;48.466;7.950;2023-09-19T04:15:57;2.60;;;1.30;;
1136;SDS011;557;48.466;7.950;2023-09-19T04:18:44;2.90;;;1.42;;
1136;SDS011;557;48.466;7.950;2023-09-19T04:21:30;2.20;;;1.40;;
1136;SDS011;557;48.466;7.950;2023-09-19T04:27:03;3.83;;;1.40;;
1136;SDS011;557;48.466;7.950;2023-09-19T04:29:49;3.30;;;1.48;;
1136;SDS011;557;48.466;7.950;2023-09-19T04:32:37;3.35;;;1.75;;
1136;SDS011;557;48.466;7.950;2023-09-19T04:35:25;3.00;;;1.70;;
1136;SDS011;557;48.466;7.950;2023-09-19T04:38:13;2.47;;;1.70;;
1136;SDS011;557;48.466;7.950;2023-09-19T04:40:58;3.63;;;1.42;;
1136;SDS011;557;48.466;7.950;2023-09-19T04:43:44;3.60;;;1.40;;
1136;SDS011;557;48.466;7.950;2023-09-19T04:46:30;3.30;;;1.50;;
1136;SDS011;557;48.466;7.950;2023-09-19T04:49:15;5.55;;;1.80;;
1136;SDS011;557;48.466;7.950;2023-09-19T04:52:03;2.70;;;1.30;;
1136;SDS011;557;48.466;7.950;2023-09-19T04:54:50;3.40;;;1.55;;
1136;SDS011;557;48.466;7.950;2023-09-19T04:57:36;2.90;;;1.20;;
1136;SDS011;557;48.466;7.950;2023-09-19T05:00:23;3.00;;;1.20;;
1136;SDS011;557;48.466;7.950;2023-09-19T05:03:09;3.40;;;1.30;;
1136;SDS011;557;48.466;7.950;2023-09-19T05:05:54;4.17;;;1.77;;
1136;SDS011;557;48.466;7.950;2023-09-19T05:08:41;3.10;;;1.40;;
1136;SDS011;557;48.466;7.950;2023-09-19T05:11:26;3.80;;;1.37;;
1136;SDS011;557;48.466;7.950;2023-09-19T05:14:14;4.00;;;1.37;;
1136;SDS011;557;48.466;7.950;2023-09-19T05:17:00;3.63;;;1.83;;
1136;SDS011;557;48.466;7.950;2023-09-19T05:19:47;3.40;;;1.37;;
1136;SDS011;557;48.466;7.950;2023-09-19T05:22:33;2.20;;;1.53;;
1136;SDS011;557;48.466;7.950;2023-09-19T05:25:20;2.40;;;1.50;;
1136;SDS011;557;48.466;7.950;2023-09-19T05:28:06;3.80;;;1.33;;
1136;SDS011;557;48.466;7.950;2023-09-19T05:30:51;2.30;;;1.70;;
1136;SDS011;557;48.466;7.950;2023-09-19T05:33:37;5.07;;;1.70;;
1136;SDS011;557;48.466;7.950;2023-09-19T05:36:23;2.67;;;1.30;;
1136;SDS011;557;48.466;7.950;2023-09-19T05:39:09;3.83;;;1.70;;
1136;SDS011;557;48.466;7.950;2023-09-19T05:41:55;2.80;;;1.60;;
1136;SDS011;557;48.466;7.950;2023-09-19T05:44:41;2.88;;;1.63;;
1136;SDS011;557;48.466;7.950;2023-09-19T05:47:27;3.17;;;1.70;;
1136;SDS011;557;48.466;7.950;2023-09-19T05:50:12;3.90;;;1.42;;
1136;SDS011;557;48.466;7.950;2023-09-19T05:52:58;3.70;;;1.60;;
1136;SDS011;557;48.466;7.950;2023-09-19T05:55:44;4.95;;;1.60;;
1136;SDS011;557;48.466;7.950;2023-09-19T05:58:31;4.20;;;1.75;;
1136;SDS011;557;48.466;7.950;2023-09-19T06:01:17;3.33;;;2.00;;
1136;SDS011;557;48.466;7.950;2023-09-19T06:04:03;3.58;;;1.48;;
1136;SDS011;557;48.466;7.950;2023-09-19T06:06:49;5.55;;;1.60;;
1136;SDS011;557;48.466;7.950;2023-09-19T06:09:35;3.30;;;1.90;;
1136;SDS011;557;48.466;7.950;2023-09-19T06:12:20;3.67;;;1.65;;
1136;SDS011;557;48.466;7.950;2023-09-19T06:15:07;3.17;;;1.50;;
1136;SDS011;557;48.466;7.950;2023-09-19T06:17:56;4.83;;;2.03;;
1136;SDS011;557;48.466;7.950;2023-09-19T06:20:43;3.38;;;1.90;;
1136;SDS011;557;48.466;7.950;2023-09-19T06:23:29;2.72;;;1.83;;
1136;SDS011;557;48.466;7.950;2023-09-19T06:26:15;2.60;;;1.60;;
1136;SDS011;557;48.466;7.950;2023-09-19T06:29:01;3.78;;;1.50;;
1136;SDS011;557;48.466;7.950;2023-09-19T06:31:53;3.90;;;1.70;;
1136;SDS011;557;48.466;7.950;2023-09-19T06:34:39;4.05;;;1.70;;
1136;SDS011;557;48.466;7.950;2023-09-19T06:37:27;2.80;;;1.60;;
1136;SDS011;557;48.466;7.950;2023-09-19T06:40:13;3.50;;;1.67;;
1136;SDS011;557;48.466;7.950;2023-09-19T06:42:59;4.05;;;1.65;;
1136;SDS011;557;48.466;7.950;2023-09-19T06:45:46;4.38;;;1.60;;
1136;SDS011;557;48.466;7.950;2023-09-19T06:48:33;3.28;;;1.70;;
1136;SDS011;557;48.466;7.950;2023-09-19T06:51:18;3.10;;;1.80;;
1136;SDS011;557;48.466;7.950;2023-09-19T06:54:04;2.90;;;2.20;;
1136;SDS011;557;48.466;7.950;2023-09-19T06:56:50;2.70;;;1.50;;
1136;SDS011;557;48.466;7.950;2023-09-19T06:59:36;3.30;;;1.80;;
1136;SDS011;557;48.466;7.950;2023-09-19T07:02:22;3.50;;;1.80;;
1136;SDS011;557;48.466;7.950;2023-09-19T07:05:09;3.90;;;1.70;;
1136;SDS011;557;48.466;7.950;2023-09-19T07:07:55;2.70;;;1.40;;
1136;SDS011;557;48.466;7.950;2023-09-19T07:10:42;3.38;;;1.77;;
1136;SDS011;557;48.466;7.950;2023-09-19T07:13:31;2.15;;;1.60;;
1136;SDS011;557;48.466;7.950;2023-09-19T07:16:17;3.10;;;1.50;;
1136;SDS011;557;48.466;7.950;2023-09-19T07:19:11;3.35;;;1.65;;
1136;SDS011;557;48.466;7.950;2023-09-19T07:22:00;2.80;;;1.70;;
1136;SDS011;557;48.466;7.950;2023-09-19T07:24:46;3.38;;;1.90;;
1136;SDS011;557;48.466;7.950;2023-09-19T07:27:32;3.80;;;1.80;;
1136;SDS011;557;48.466;7.950;2023-09-19T07:30:18;2.42;;;1.65;;
1136;SDS011;557;48.466;7.950;2023-09-19T07:33:04;4.20;;;1.90;;
1136;SDS011;557;48.466;7.950;2023-09-19T07:35:50;3.35;;;1.90;;
1136;SDS011;557;48.466;7.950;2023-09-19T07:38:37;3.30;;;1.80;;
1136;SDS011;557;48.466;7.950;2023-09-19T07:41:23;3.83;;;1.60;;
1136;SDS011;557;48.466;7.950;2023-09-19T07:44:09;3.60;;;1.80;;
1136;SDS011;557;48.466;7.950;2023-09-19T07:46:55;3.20;;;1.60;;
1136;SDS011;557;48.466;7.950;2023-09-19T07:49:40;4.55;;;1.80;;
1136;SDS011;557;48.466;7.950;2023-09-19T07:52:26;3.50;;;1.80;;
1136;SDS011;557;48.466;7.950;2023-09-19T07:55:13;3.88;;;1.80;;
1136;SDS011;557;48.466;7.950;2023-09-19T07:58:01;3.72;;;1.83;;
1136;SDS011;557;48.466;7.950;2023-09-19T08:00:48;2.65;;;1.67;;
1136;SDS011;557;48.466;7.950;2023-09-19T08:03:33;3.95;;;1.90;;
1136;SDS011;557;48.466;7.950;2023-09-19T08:06:23;3.50;;;1.70;;
1136;SDS011;557;48.466;7.950;2023-09-19T08:09:13;4.30;;;1.80;;
1136;SDS011;557;48.466;7.950;2023-09-19T08:12:05;3.60;;;2.00;;
1136;SDS011;557;48.466;7.950;2023-09-19T08:14:54;3.23;;;1.80;;
1136;SDS011;557;48.466;7.950;2023-09-19T08:17:40;3.80;;;2.00;;
1136;SDS011;557;48.466;7.950;2023-09-19T08:20:26;2.47;;;1.77;;
1136;SDS011;557;48.466;7.950;2023-09-19T08:23:11;2.80;;;1.90;;
1136;SDS011;557;48.466;7.950;2023-09-19T08:25:57;3.20;;;1.90;;
1136;SDS011;557;48.466;7.950;2023-09-19T08:28:47;3.67;;;2.30;;
1136;SDS011;557;48.466;7.950;2023-09-19T08:31:43;5.75;;;2.47;;
1136;SDS011;557;48.466;7.950;2023-09-19T08:34:33;3.35;;;2.17;;
1136;SDS011;557;48.466;7.950;2023-09-19T08:37:23;3.20;;;1.90;;
1136;SDS011;557;48.466;7.950;2023-09-19T08:40:11;3.10;;;2.30;;
1136;SDS011;557;48.466;7.950;2023-09-19T08:43:04;4.20;;;2.10;;
1136;SDS011;557;48.466;7.950;2023-09-19T08:45:51;3.83;;;2.20;;
1136;SDS011;557;48.466;7.950;2023-09-19T08:48:44;3.90;;;2.70;;
1136;SDS011;557;48.466;7.950;2023-09-19T08:51:33;3.10;;;2.60;;
1136;SDS011;557;48.466;7.950;2023-09-19T08:54:28;3.90;;;2.20;;
1136;SDS011;557;48.466;7.950;2023-09-19T08:57:23;3.60;;;3.00;;
1136;SDS011;557;48.466;7.950;2023-09-19T09:00:09;4.20;;;3.00;;
1136;SDS011;557;48.466;7.950;2023-09-19T09:03:00;3.80;;;2.90;;
1136;SDS011;557;48.466;7.950;2023-09-19T09:05:47;4.70;;;3.20;;
1136;SDS011;557;48.466;7.950;2023-09-19T09:08:36;3.60;;;3.30;;
1136;SDS011;557;48.466;7.950;2023-09-19T09:11:22;3.30;;;3.00;;
1136;SDS011;557;48.466;7.950;2023-09-19T09:14:08;3.70;;;3.35;;
1136;SDS011;557;48.466;7.950;2023-09-19T09:16:55;4.82;;;4.43;;
1136;SDS011;557;48.466;7.950;2023-09-19T09:19:43;4.90;;;4.50;;
1136;SDS011;557;48.466;7.950;2023-09-19T09:22:29;5.03;;;4.60;;
1136;SDS011;557;48.466;7.950;2023-09-19T09:25:15;5.13;;;4.72;;
1136;SDS011;557;48.466;7.950;2023-09-19T09:28:02;5.15;;;4.72;;
1136;SDS011;557;48.466;7.950;2023-09-19T09:30:48;6.10;;;5.60;;
1136;SDS011;557;48.466;7.950;2023-09-19T09:33:34;6.20;;;5.80;;
1136;SDS011;557;48.466;7.950;2023-09-19T09:36:34;6.70;;;6.30;;
1136;SDS011;557;48.466;7.950;2023-09-19T09:39:29;7.00;;;6.40;;
1136;SDS011;557;48.466;7.950;2023-09-19T09:42:18;7.10;;;6.60;;
1136;SDS011;557;48.466;7.950;2023-09-19T09:45:16;6.57;;;6.00;;
1136;SDS011;557;48.466;7.950;2023-09-19T09:48:12;7.10;;;6.70;;
1136;SDS011;557;48.466;7.950;2023-09-19T09:50:58;7.47;;;6.97;;
1136;SDS011;557;48.466;7.950;2023-09-19T09:53:48;6.80;;;6.40;;
1136;SDS011;557;48.466;7.950;2023-09-19T09:56:34;7.10;;;6.70;;
1136;SDS011;557;48.466;7.950;2023-09-19T09:59:48;7.03;;;6.68;;
1136;SDS011;557;48.466;7.950;2023-09-19T10:02:37;7.20;;;6.80;;
1136;SDS011;557;48.466;7.950;2023-09-19T10:05:24;6.90;;;6.40;;
1136;SDS011;557;48.466;7.950;2023-09-19T10:08:24;7.18;;;6.57;;
1136;SDS011;557;48.466;7.950;2023-09-19T10:11:16;7.60;;;7.10;;
1136;SDS011;557;48.466;7.950;2023-09-19T10:14:03;7.70;;;7.20;;
1136;SDS011;557;48.466;7.950;2023-09-19T10:16:53;7.30;;;6.80;;
1136;SDS011;557;48.466;7.950;2023-09-19T10:19:45;8.20;;;7.60;;
1136;SDS011;557;48.466;7.950;2023-09-19T10:22:41;8.20;;;7.70;;
1136;SDS011;557;48.466;7.950;2023-09-19T10:25:28;8.32;;;7.72;;
1136;SDS011;557;48.466;7.950;2023-09-19T10:28:17;8.20;;;7.80;;
1136;SDS011;557;48.466;7.950;2023-09-19T10:31:05;8.80;;;8.20;;
1136;SDS011;557;48.466;7.950;2023-09-19T10:33:53;8.50;;;8.00;;
1136;SDS011;557;48.466;7.950;2023-09-19T10:36:44;9.10;;;8.50;;
1136;SDS011;557;48.466;7.950;2023-09-19T10:39:30;9.30;;;8.70;;
1136;SDS011;557;48.466;7.950;2023-09-19T10:42:18;9.07;;;8.50;;
1136;SDS011;557;48.466;7.950;2023-09-19T10:45:06;8.70;;;8.20;;
1136;SDS011;557;48.466;7.950;2023-09-19T10:47:57;9.35;;;8.85;;
1136;SDS011;557;48.466;7.950;2023-09-19T10:50:43;9.75;;;9.25;;
1136;SDS011;557;48.466;7.950;2023-09-19T10:53:39;9.38;;;8.88;;
1136;SDS011;557;48.466;7.950;2023-09-19T10:56:30;10.07;;;9.48;;
1136;SDS011;557;48.466;7.950;2023-09-19T10:59:21;10.45;;;9.85;;
1136;SDS011;557;48.466;7.950;2023-09-19T11:02:16;10.20;;;9.70;;
1136;SDS011;557;48.466;7.950;2023-09-19T11:05:10;9.90;;;9.40;;
1136;SDS011;557;48.466;7.950;2023-09-19T11:07:57;10.30;;;9.70;;
1136;SDS011;557;48.466;7.950;2023-09-19T11:10:44;10.50;;;9.90;;
1136;SDS011;557;48.466;7.950;2023-09-19T11:13:30;10.45;;;9.80;;
1136;SDS011;557;48.466;7.950;2023-09-19T11:16:18;10.30;;;9.80;;
1136;SDS011;557;48.466;7.950;2023-09-19T11:19:08;10.80;;;10.20;;
1136;SDS011;557;48.466;7.950;2023-09-19T11:21:55;10.33;;;9.73;;
1136;SDS011;557;48.466;7.950;2023-09-19T11:24:40;9.93;;;9.52;;
1136;SDS011;557;48.466;7.950;2023-09-19T11:27:25;10.40;;;9.90;;
1136;SDS011;557;48.466;7.950;2023-09-19T11:30:25;10.70;;;10.20;;
1136;SDS011;557;48.466;7.950;2023-09-19T11:33:17;11.25;;;10.60;;
1136;SDS011;557;48.466;7.950;2023-09-19T11:36:09;10.95;;;10.35;;
1136;SDS011;557;48.466;7.950;2023-09-19T11:38:59;11.00;;;10.40;;
1136;SDS011;557;48.466;7.950;2023-09-19T11:41:52;10.70;;;10.20;;
1136;SDS011;557;48.466;7.950;2023-09-19T11:44:40;10.70;;;10.20;;
1136;SDS011;557;48.466;7.950;2023-09-19T11:47:26;10.30;;;9.70;;
1136;SDS011;557;48.466;7.950;2023-09-19T11:50:16;10.30;;;9.80;;
1136;SDS011;557;48.466;7.950;2023-09-19T11:53:05;10.40;;;9.90;;
1136;SDS011;557;48.466;7.950;2023-09-19T11:55:54;10.20;;;9.70;;
1136;SDS011;557;48.466;7.950;2023-09-19T11:58:40;10.07;;;9.57;;
1136;SDS011;557;48.466;7.950;2023-09-19T12:01:28;10.55;;;10.00;;
1136;SDS011;557;48.466;7.950;2023-09-19T12:04:16;10.70;;;10.10;;
1136;SDS011;557;48.466;7.950;2023-09-19T12:07:06;10.70;;;10.10;;
1136;SDS011;557;48.466;7.950;2023-09-19T12:10:03;10.98;;;10.38;;
1136;SDS011;557;48.466;7.950;2023-09-19T12:12:55;11.50;;;11.00;;
1136;SDS011;557;48.466;7.950;2023-09-19T12:15:43;11.57;;;10.97;;
1136;SDS011;557;48.466;7.950;2023-09-19T12:18:31;12.10;;;11.50;;
1136;SDS011;557;48.466;7.950;2023-09-19T12:21:26;12.52;;;11.82;;
1136;SDS011;557;48.466;7.950;2023-09-19T12:24:15;11.90;;;11.32;;
1136;SDS011;557;48.466;7.950;2023-09-19T12:27:05;12.40;;;11.80;;
1136;SDS011;557;48.466;7.950;2023-09-19T12:29:51;12.13;;;11.40;;
1136;SDS011;557;48.466;7.950;2023-09-19T12:32:39;12.30;;;11.70;;
1136;SDS011;557;48.466;7.950;2023-09-19T12:35:28;12.70;;;12.00;;
1136;SDS011;557;48.466;7.950;2023-09-19T12:38:24;12.20;;;11.60;;
1136;SDS011;557;48.466;7.950;2023-09-19T12:41:12;12.05;;;11.50;;
1136;SDS011;557;48.466;7.950;2023-09-19T12:43:59;12.30;;;11.70;;
1136;SDS011;557;48.466;7.950;2023-09-19T12:46:53;13.00;;;12.20;;
1136;SDS011;557;48.466;7.950;2023-09-19T12:52:58;13.00;;;12.40;;
1136;SDS011;557;48.466;7.950;2023-09-19T12:55:44;12.67;;;12.00;;
1136;SDS011;557;48.466;7.950;2023-09-19T12:58:30;13.40;;;12.70;;
1136;SDS011;557;48.466;7.950;2023-09-19T13:01:19;13.52;;;12.82;;
1136;SDS011;557;48.466;7.950;2023-09-19T13:04:13;13.30;;;12.50;;
1136;SDS011;557;48.466;7.950;2023-09-19T13:07:01;13.23;;;12.60;;
1136;SDS011;557;48.466;7.950;2023-09-19T13:10:02;12.73;;;12.13;;
1136;SDS011;557;48.466;7.950;2023-09-19T13:16:11;13.00;;;12.30;;
1136;SDS011;557;48.466;7.950;2023-09-19T13:19:04;13.10;;;12.40;;
1136;SDS011;557;48.466;7.950;2023-09-19T13:21:49;13.60;;;12.90;;
1136;SDS011;557;48.466;7.950;2023-09-19T13:24:38;13.30;;;12.40;;
1136;SDS011;557;48.466;7.950;2023-09-19T13:27:24;13.10;;;12.50;;
1136;SDS011;557;48.466;7.950;2023-09-19T13:30:11;13.20;;;12.50;;
1136;SDS011;557;48.466;7.950;2023-09-19T13:33:06;13.00;;;12.40;;
1136;SDS011;557;48.466;7.950;2023-09-19T13:35:55;13.70;;;12.90;;
1136;SDS011;557;48.466;7.950;2023-09-19T13:38:41;13.00;;;12.40;;
1136;SDS011;557;48.466;7.950;2023-09-19T13:41:27;13.10;;;12.50;;
1136;SDS011;557;48.466;7.950;2023-09-19T13:44:16;13.60;;;12.90;;
1136;SDS011;557;48.466;7.950;2023-09-19T13:47:01;13.25;;;12.60;;
1136;SDS011;557;48.466;7.950;2023-09-19T13:49:57;13.40;;;12.50;;
1136;SDS011;557;48.466;7.950;2023-09-19T13:52:43;13.30;;;12.60;;
1136;SDS011;557;48.466;7.950;2023-09-19T13:55:31;13.00;;;12.40;;
1136;SDS011;557;48.466;7.950;2023-09-19T13:58:16;13.40;;;12.80;;
1136;SDS011;557;48.466;7.950;2023-09-19T14:01:02;13.50;;;12.80;;
1136;SDS011;557;48.466;7.950;2023-09-19T14:03:48;13.57;;;12.88;;
1136;SDS011;557;48.466;7.950;2023-09-19T14:06:35;14.00;;;13.30;;
1136;SDS011;557;48.466;7.950;2023-09-19T14:09:22;13.27;;;12.60;;
1136;SDS011;557;48.466;7.950;2023-09-19T14:12:08;14.20;;;13.50;;
1136;SDS011;557;48.466;7.950;2023-09-19T14:14:54;14.15;;;13.27;;
1136;SDS011;557;48.466;7.950;2023-09-19T14:17:39;13.60;;;12.90;;
1136;SDS011;557;48.466;7.950;2023-09-19T14:20:26;13.68;;;12.98;;
1136;SDS011;557;48.466;7.950;2023-09-19T14:23:13;13.50;;;12.80;;
1136;SDS011;557;48.466;7.950;2023-09-19T14:26:01;13.90;;;13.10;;
1136;SDS011;557;48.466;7.950;2023-09-19T14:28:49;13.90;;;13.20;;
1136;SDS011;557;48.466;7.950;2023-09-19T14:31:36;13.80;;;13.10;;
1136;SDS011;557;48.466;7.950;2023-09-19T14:34:23;13.77;;;13.07;;
1136;SDS011;557;48.466;7.950;2023-09-19T14:37:09;14.98;;;14.07;;
1136;SDS011;557;48.466;7.950;2023-09-19T14:39:54;14.30;;;13.60;;
1136;SDS011;557;48.466;7.950;2023-09-19T14:42:41;17.15;;;16.13;;
1136;SDS011;557;48.466;7.950;2023-09-19T14:45:27;16.83;;;15.82;;
1136;SDS011;557;48.466;7.950;2023-09-19T14:48:15;16.10;;;15.20;;
1136;SDS011;557;48.466;7.950;2023-09-19T14:51:03;13.90;;;13.20;;
1136;SDS011;557;48.466;7.950;2023-09-19T14:53:53;13.90;;;13.20;;
1136;SDS011;557;48.466;7.950;2023-09-19T14:56:38;14.20;;;13.40;;
1136;SDS011;557;48.466;7.950;2023-09-19T14:59:25;14.20;;;13.50;;
1136;SDS011;557;48.466;7.950;2023-09-19T15:02:10;15.10;;;14.30;;
1136;SDS011;557;48.466;7.950;2023-09-19T15:04:57;14.27;;;13.48;;
1136;SDS011;557;48.466;7.950;2023-09-19T15:07:45;14.00;;;13.30;;
1136;SDS011;557;48.466;7.950;2023-09-19T15:10:31;13.82;;;13.13;;
1136;SDS011;557;48.466;7.950;2023-09-19T15:13:16;13.60;;;13.00;;
1136;SDS011;557;48.466;7.950;2023-09-19T15:16:04;13.80;;;13.20;;
1136;SDS011;557;48.466;7.950;2023-09-19T15:18:52;13.70;;;13.00;;
1136;SDS011;557;48.466;7.950;2023-09-19T15:21:38;13.60;;;13.00;;
1136;SDS011;557;48.466;7.950;2023-09-19T15:24:24;13.70;;;13.10;;
1136;SDS011;557;48.466;7.950;2023-09-19T15:27:10;14.23;;;13.50;;
1136;SDS011;557;48.466;7.950;2023-09-19T15:29:56;14.40;;;13.70;;
1136;SDS011;557;48.466;7.950;2023-09-19T15:32:43;13.77;;;13.07;;
1136;SDS011;557;48.466;7.950;2023-09-19T15:35:29;14.00;;;13.30;;
1136;SDS011;557;48.466;7.950;2023-09-19T15:38:14;13.53;;;12.83;;
1136;SDS011;557;48.466;7.950;2023-09-19T15:41:00;13.40;;;12.80;;
1136;SDS011;557;48.466;7.950;2023-09-19T15:43:45;13.18;;;12.50;;
1136;SDS011;557;48.466;7.950;2023-09-19T15:46:32;12.50;;;11.80;;
1136;SDS011;557;48.466;7.950;2023-09-19T15:49:20;12.80;;;12.20;;
1136;SDS011;557;48.466;7.950;2023-09-19T15:52:06;12.70;;;12.10;;
1136;SDS011;557;48.466;7.950;2023-09-19T15:54:53;12.40;;;11.70;;
1136;SDS011;557;48.466;7.950;2023-09-19T16:00:50;12.60;;;12.00;;
1136;SDS011;557;48.466;7.950;2023-09-19T16:03:36;12.30;;;11.70;;
1136;SDS011;557;48.466;7.950;2023-09-19T16:06:24;12.63;;;12.03;;
1136;SDS011;557;48.466;7.950;2023-09-19T16:09:11;12.50;;;11.90;;
1136;SDS011;557;48.466;7.950;2023-09-19T16:11:58;12.60;;;12.00;;
1136;SDS011;557;48.466;7.950;2023-09-19T16:14:43;12.50;;;11.90;;
1136;SDS011;557;48.466;7.950;2023-09-19T16:17:29;12.55;;;11.85;;
1136;SDS011;557;48.466;7.950;2023-09-19T16:20:14;12.70;;;12.10;;
1136;SDS011;557;48.466;7.950;2023-09-19T16:23:02;12.73;;;11.93;;
1136;SDS011;557;48.466;7.950;2023-09-19T16:25:47;12.80;;;12.20;;
1136;SDS011;557;48.466;7.950;2023-09-19T16:28:33;13.00;;;12.40;;
1136;SDS011;557;48.466;7.950;2023-09-19T16:31:25;12.80;;;12.20;;
1136;SDS011;557;48.466;7.950;2023-09-19T16:34:11;12.80;;;12.20;;
1136;SDS011;557;48.466;7.950;2023-09-19T16:36:58;13.10;;;12.40;;
1136;SDS011;557;48.466;7.950;2023-09-19T16:39:46;12.48;;;11.88;;
1136;SDS011;557;48.466;7.950;2023-09-19T16:42:32;12.85;;;12.20;;
1136;SDS011;557;48.466;7.950;2023-09-19T16:45:18;13.65;;;12.35;;
1136;SDS011;557;48.466;7.950;2023-09-19T16:48:03;12.32;;;11.73;;
1136;SDS011;557;48.466;7.950;2023-09-19T16:50:50;12.27;;;11.70;;
1136;SDS011;557;48.466;7.950;2023-09-19T16:53:35;12.60;;;11.80;;
1136;SDS011;557;48.466;7.950;2023-09-19T16:56:23;12.25;;;11.55;;
1136;SDS011;557;48.466;7.950;2023-09-19T16:59:09;12.65;;;11.95;;
1136;SDS011;557;48.466;7.950;2023-09-19T17:01:54;12.48;;;11.88;;
1136;SDS011;557;48.466;7.950;2023-09-19T17:04:42;12.30;;;11.70;;
1136;SDS011;557;48.466;7.950;2023-09-19T17:07:28;11.80;;;11.30;;
1136;SDS011;557;48.466;7.950;2023-09-19T17:10:13;12.20;;;11.50;;
1136;SDS011;557;48.466;7.950;2023-09-19T17:13:00;12.43;;;11.60;;
1136;SDS011;557;48.466;7.950;2023-09-19T17:15:47;12.60;;;11.80;;
1136;SDS011;557;48.466;7.950;2023-09-19T17:18:43;13.60;;;12.30;;
1136;SDS011;557;48.466;7.950;2023-09-19T17:21:29;12.30;;;11.60;;
1136;SDS011;557;48.466;7.950;2023-09-19T17:24:15;12.38;;;11.77;;
1136;SDS011;557;48.466;7.950;2023-09-19T17:27:03;16.85;;;15.77;;
1136;SDS011;557;48.466;7.950;2023-09-19T17:29:51;12.30;;;11.70;;
1136;SDS011;557;48.466;7.950;2023-09-19T17:32:36;12.40;;;11.80;;
1136;SDS011;557;48.466;7.950;2023-09-19T17:35:22;12.20;;;11.60;;
1136;SDS011;557;48.466;7.950;2023-09-19T17:38:08;12.65;;;12.05;;
1136;SDS011;557;48.466;7.950;2023-09-19T17:40:54;12.30;;;11.70;;